Time;durP1;ratioP1;P1;durP2;ratioP2;P2;SDS_P1;SDS_P2;PMS_P1;PMS_P2;Temp;Humidity;BMP_temperature;BMP_pressure;BME280_temperature;BME280_humidity;BME280_pressure;Samples;Min_cycle;Max_cycle;Signal;HPM_P1;HPM_P2
2021/09/03 00:00:06;;;;;;;8.35;3.80;;;;;;;;;;5050082;28;20443;-57
2021/09/03 00:02:32;;;;;;;8.35;4.30;;;;;;;;;;5046225;28;20531;-57
2021/09/03 00:04:58;;;;;;;7.63;4.50;;;;;;;;;;5048832;28;20468;-56
2021/09/03 00:07:24;;;;;;;8.52;4.43;;;;;;;;;;5046756;28;20399;-52
2021/09/03 00:09:50;;;;;;;6.57;3.90;;;;;;;;;;5050716;28;20482;-55
2021/09/03 00:12:16;;;;;;;6.23;3.37;;;;;;;;;;5046969;28;20397;-56
2021/09/03 00:14:42;;;;;;;6.07;3.47;;;;;;;;;;5046082;28;20554;-56
2021/09/03 00:17:08;;;;;;;6.30;3.13;;;;;;;;;;5048730;28;20409;-54
2021/09/03 00:19:33;;;;;;;6.70;3.83;;;;;;;;;;5050716;28;20405;-55
2021/09/03 00:21:59;;;;;;;6.85;4.38;;;;;;;;;;5045677;28;20886;-55
2021/09/03 00:24:26;;;;;;;5.82;3.63;;;;;;;;;;5030689;28;20463;-52
2021/09/03 00:26:52;;;;;;;5.63;3.47;;;;;;;;;;5045716;28;20492;-56
2021/09/03 00:29:18;;;;;;;5.65;3.17;;;;;;;;;;5052340;28;20431;-57
2021/09/03 00:31:44;;;;;;;7.57;3.80;;;;;;;;;;5050526;28;20998;-54
2021/09/03 00:34:10;;;;;;;6.15;4.00;;;;;;;;;;5048542;28;20398;-52
2021/09/03 00:36:36;;;;;;;5.88;3.00;;;;;;;;;;5055558;28;20826;-52
2021/09/03 00:39:02;;;;;;;7.70;3.93;;;;;;;;;;5055099;28;20392;-52
2021/09/03 00:41:28;;;;;;;5.20;3.10;;;;;;;;;;5053615;28;20468;-54
2021/09/03 00:43:54;;;;;;;7.47;3.60;;;;;;;;;;5047100;28;20867;-54
2021/09/03 00:46:20;;;;;;;7.50;4.03;;;;;;;;;;5055018;28;20388;-53
2021/09/03 00:48:45;;;;;;;6.57;3.50;;;;;;;;;;5055280;28;20389;-52
2021/09/03 00:51:12;;;;;;;6.45;3.90;;;;;;;;;;5055637;28;20392;-54
2021/09/03 00:53:38;;;;;;;5.43;3.35;;;;;;;;;;5051180;28;20401;-50
2021/09/03 00:56:05;;;;;;;5.78;3.42;;;;;;;;;;5042147;28;20411;-53
2021/09/03 00:58:32;;;;;;;6.57;3.80;;;;;;;;;;5025869;28;20402;-55
2021/09/03 01:00:58;;;;;;;6.00;3.47;;;;;;;;;;5053125;28;20482;-56
2021/09/03 01:03:24;;;;;;;6.00;3.13;;;;;;;;;;5042088;28;20472;-51
2021/09/03 01:05:50;;;;;;;5.33;3.20;;;;;;;;;;5053493;28;20392;-57
2021/09/03 01:08:16;;;;;;;5.07;3.22;;;;;;;;;;5049792;28;20719;-56
2021/09/03 01:10:42;;;;;;;5.55;3.13;;;;;;;;;;5049963;28;20401;-56
2021/09/03 01:13:08;;;;;;;6.15;3.00;;;;;;;;;;5049049;28;20405;-54
2021/09/03 01:15:34;;;;;;;7.15;3.42;;;;;;;;;;5053015;28;20488;-56
2021/09/03 01:18:00;;;;;;;6.25;3.65;;;;;;;;;;5047005;28;20417;-56
2021/09/03 01:20:27;;;;;;;4.67;2.80;;;;;;;;;;5049026;28;20763;-52
2021/09/03 01:22:53;;;;;;;5.30;3.00;;;;;;;;;;5048952;28;20387;-54
2021/09/03 01:25:19;;;;;;;6.80;3.38;;;;;;;;;;5049406;28;20904;-52
2021/09/03 01:27:45;;;;;;;5.93;3.20;;;;;;;;;;5044236;28;20401;-51
2021/09/03 01:30:16;;;;;;;6.03;3.28;;;;;;;;;;5054397;28;20401;-54
2021/09/03 01:32:42;;;;;;;5.00;2.65;;;;;;;;;;5044888;28;20724;-56
2021/09/03 01:35:08;;;;;;;6.10;3.57;;;;;;;;;;5046005;28;20413;-55
2021/09/03 01:37:34;;;;;;;5.47;3.13;;;;;;;;;;5050087;28;20410;-55
2021/09/03 01:40:00;;;;;;;6.70;3.27;;;;;;;;;;5038835;28;20404;-56
2021/09/03 01:42:26;;;;;;;4.80;2.83;;;;;;;;;;5051403;28;20447;-56
2021/09/03 01:44:52;;;;;;;5.82;3.20;;;;;;;;;;5043361;28;20931;-57
2021/09/03 01:47:18;;;;;;;5.75;3.53;;;;;;;;;;5050520;28;20404;-55
2021/09/03 01:49:44;;;;;;;5.93;3.28;;;;;;;;;;5052232;28;20400;-57
2021/09/03 01:52:10;;;;;;;6.28;2.88;;;;;;;;;;5048340;28;20854;-55
2021/09/03 01:54:36;;;;;;;5.40;3.20;;;;;;;;;;5049759;28;20395;-56
2021/09/03 01:57:02;;;;;;;5.45;2.92;;;;;;;;;;5048009;28;20393;-55
2021/09/03 01:59:28;;;;;;;5.75;2.97;;;;;;;;;;5053538;28;20381;-56
2021/09/03 02:01:54;;;;;;;5.55;3.28;;;;;;;;;;5048148;28;20467;-53
2021/09/03 02:04:20;;;;;;;6.25;4.07;;;;;;;;;;5054269;28;20427;-54
2021/09/03 02:06:46;;;;;;;6.20;3.83;;;;;;;;;;5050574;28;20475;-56
2021/09/03 02:09:12;;;;;;;5.07;3.17;;;;;;;;;;5054906;28;20750;-52
2021/09/03 02:11:38;;;;;;;4.15;2.60;;;;;;;;;;5054671;28;20393;-53
2021/09/03 02:14:04;;;;;;;6.75;3.20;;;;;;;;;;5050825;28;20837;-52
2021/09/03 02:16:31;;;;;;;5.15;3.17;;;;;;;;;;5045957;28;20509;-52
2021/09/03 02:18:58;;;;;;;6.60;3.83;;;;;;;;;;5033685;28;20416;-52
2021/09/03 02:21:24;;;;;;;5.60;3.10;;;;;;;;;;5053904;28;20389;-52
2021/09/03 02:23:50;;;;;;;6.25;3.25;;;;;;;;;;5052238;28;20395;-54
2021/09/03 02:26:16;;;;;;;5.50;3.33;;;;;;;;;;5034581;28;20412;-52
2021/09/03 02:28:42;;;;;;;5.63;3.10;;;;;;;;;;5048488;28;20395;-53
2021/09/03 02:31:08;;;;;;;5.95;2.97;;;;;;;;;;5055416;28;20863;-56
2021/09/03 02:33:34;;;;;;;6.00;2.90;;;;;;;;;;5044438;28;20776;-57
2021/09/03 02:36:00;;;;;;;5.55;3.00;;;;;;;;;;5046390;28;20415;-57
2021/09/03 02:38:26;;;;;;;5.65;3.00;;;;;;;;;;5056495;28;20841;-57
2021/09/03 02:40:52;;;;;;;8.30;3.70;;;;;;;;;;5058664;28;20379;-55
2021/09/03 02:43:18;;;;;;;6.57;2.92;;;;;;;;;;5059791;28;20392;-54
2021/09/03 02:45:44;;;;;;;5.80;3.00;;;;;;;;;;5046406;28;20739;-57
2021/09/03 02:48:10;;;;;;;5.33;3.10;;;;;;;;;;5056474;28;20387;-56
2021/09/03 02:50:37;;;;;;;4.57;2.63;;;;;;;;;;5053098;28;20387;-54
2021/09/03 02:53:03;;;;;;;5.72;3.15;;;;;;;;;;5050246;28;20401;-51
2021/09/03 02:55:29;;;;;;;5.60;3.20;;;;;;;;;;5049499;28;20417;-54
2021/09/03 02:57:56;;;;;;;6.27;3.27;;;;;;;;;;5062522;28;20401;-51
2021/09/03 03:00:22;;;;;;;8.05;3.63;;;;;;;;;;5048566;28;20401;-52
2021/09/03 03:02:48;;;;;;;5.55;3.00;;;;;;;;;;5058896;28;20464;-52
2021/09/03 03:05:17;;;;;;;6.57;2.75;;;;;;;;;;5053720;28;20391;-55
2021/09/03 03:07:43;;;;;;;5.20;3.05;;;;;;;;;;5048035;28;20453;-53
2021/09/03 03:10:09;;;;;;;5.30;2.95;;;;;;;;;;5059475;28;20814;-55
2021/09/03 03:12:35;;;;;;;5.10;3.00;;;;;;;;;;5044136;28;20728;-53
2021/09/03 03:15:01;;;;;;;6.95;3.75;;;;;;;;;;5051099;28;20412;-55
2021/09/03 03:17:28;;;;;;;4.32;2.70;;;;;;;;;;5051126;28;20406;-55
2021/09/03 03:19:54;;;;;;;5.93;3.55;;;;;;;;;;5054619;28;20387;-57
2021/09/03 03:22:19;;;;;;;5.97;3.17;;;;;;;;;;5048687;28;20392;-54
2021/09/03 03:24:46;;;;;;;6.53;3.08;;;;;;;;;;5046488;28;20405;-57
2021/09/03 03:27:12;;;;;;;4.30;2.80;;;;;;;;;;5042745;28;20399;-57
2021/09/03 03:29:38;;;;;;;6.03;3.38;;;;;;;;;;5055316;28;20421;-55
2021/09/03 03:32:04;;;;;;;8.90;3.80;;;;;;;;;;5049535;28;20439;-57
2021/09/03 03:34:30;;;;;;;5.95;3.50;;;;;;;;;;5051284;28;20394;-57
2021/09/03 03:36:56;;;;;;;5.10;3.40;;;;;;;;;;5051707;28;20607;-56
2021/09/03 03:39:22;;;;;;;4.55;2.83;;;;;;;;;;5048155;28;20472;-54
2021/09/03 03:41:48;;;;;;;3.83;2.70;;;;;;;;;;5045800;28;20927;-54
2021/09/03 03:44:14;;;;;;;6.72;2.97;;;;;;;;;;5046077;28;21055;-55
2021/09/03 03:46:40;;;;;;;7.18;3.50;;;;;;;;;;5041892;28;20399;-53
2021/09/03 03:49:06;;;;;;;4.93;3.05;;;;;;;;;;5036993;28;20397;-52
2021/09/03 03:51:32;;;;;;;5.32;2.90;;;;;;;;;;5051013;28;20540;-53
2021/09/03 03:53:58;;;;;;;6.05;3.45;;;;;;;;;;5049550;28;20399;-56
2021/09/03 03:56:24;;;;;;;4.75;2.88;;;;;;;;;;5048994;28;20422;-54
2021/09/03 03:58:50;;;;;;;5.60;3.22;;;;;;;;;;5055571;28;20486;-57
2021/09/03 04:01:16;;;;;;;4.90;2.80;;;;;;;;;;5058436;28;20461;-54
2021/09/03 04:03:42;;;;;;;4.40;2.75;;;;;;;;;;5043208;28;20442;-53
2021/09/03 04:06:08;;;;;;;6.53;3.70;;;;;;;;;;5045684;28;20478;-57
2021/09/03 04:08:34;;;;;;;6.45;3.45;;;;;;;;;;5056510;28;20400;-56
2021/09/03 04:11:00;;;;;;;6.45;3.58;;;;;;;;;;5049397;28;20397;-57
2021/09/03 04:13:26;;;;;;;5.80;3.20;;;;;;;;;;5043742;28;20469;-57
2021/09/03 04:15:52;;;;;;;4.23;2.80;;;;;;;;;;5042105;28;20424;-56
2021/09/03 04:18:18;;;;;;;5.18;2.75;;;;;;;;;;5047204;28;20473;-53
2021/09/03 04:20:44;;;;;;;5.85;3.05;;;;;;;;;;5058599;28;20393;-54
2021/09/03 04:23:10;;;;;;;5.82;3.05;;;;;;;;;;5052381;28;20441;-53
2021/09/03 04:25:36;;;;;;;5.17;3.03;;;;;;;;;;5048742;28;20742;-54
2021/09/03 04:28:03;;;;;;;8.35;3.55;;;;;;;;;;5048746;28;20798;-52
2021/09/03 04:30:29;;;;;;;9.50;4.43;;;;;;;;;;5057213;28;20396;-54
2021/09/03 04:32:55;;;;;;;5.82;3.30;;;;;;;;;;5038443;28;20400;-51
2021/09/03 04:35:21;;;;;;;7.57;3.53;;;;;;;;;;5046372;28;20446;-53
2021/09/03 04:37:47;;;;;;;6.43;3.40;;;;;;;;;;5051020;28;21040;-53
2021/09/03 04:40:14;;;;;;;6.07;3.55;;;;;;;;;;5059054;28;20716;-55
2021/09/03 04:42:40;;;;;;;8.43;3.83;;;;;;;;;;5046184;28;20451;-52
2021/09/03 04:45:07;;;;;;;7.15;3.85;;;;;;;;;;5042580;28;20509;-52
2021/09/03 04:47:33;;;;;;;7.25;3.88;;;;;;;;;;5050750;28;20425;-54
2021/09/03 04:49:59;;;;;;;6.00;3.67;;;;;;;;;;5055283;28;20400;-54
2021/09/03 04:52:25;;;;;;;6.70;4.05;;;;;;;;;;5053343;28;20409;-53
2021/09/03 04:54:51;;;;;;;5.57;3.70;;;;;;;;;;5051388;28;22182;-57
2021/09/03 04:57:17;;;;;;;5.93;3.70;;;;;;;;;;5057395;28;20399;-57
2021/09/03 04:59:43;;;;;;;5.25;3.42;;;;;;;;;;5041560;28;20403;-56
2021/09/03 05:02:09;;;;;;;6.20;4.03;;;;;;;;;;5044807;28;20474;-55
2021/09/03 05:04:35;;;;;;;6.72;4.10;;;;;;;;;;5043475;28;20397;-56
2021/09/03 05:07:01;;;;;;;6.80;4.38;;;;;;;;;;5051672;28;20812;-55
2021/09/03 05:09:27;;;;;;;6.37;3.87;;;;;;;;;;5046700;28;20405;-56
2021/09/03 05:11:53;;;;;;;5.63;3.73;;;;;;;;;;5048718;28;20477;-57
2021/09/03 05:14:19;;;;;;;6.30;3.70;;;;;;;;;;5046971;28;20389;-56
2021/09/03 05:16:45;;;;;;;6.07;3.97;;;;;;;;;;5046866;28;20546;-54
2021/09/03 05:19:11;;;;;;;5.93;3.45;;;;;;;;;;5045390;28;20409;-55
2021/09/03 05:21:36;;;;;;;5.60;3.83;;;;;;;;;;5052632;28;20401;-55
2021/09/03 05:24:02;;;;;;;6.80;4.30;;;;;;;;;;5043413;28;20830;-55
2021/09/03 05:26:28;;;;;;;6.35;4.18;;;;;;;;;;5049892;28;20397;-55
2021/09/03 05:28:54;;;;;;;6.27;3.80;;;;;;;;;;5052217;28;20397;-53
2021/09/03 05:31:20;;;;;;;6.90;4.35;;;;;;;;;;5050379;28;20790;-53
2021/09/03 05:33:46;;;;;;;6.25;4.10;;;;;;;;;;5040072;28;20438;-55
2021/09/03 05:36:12;;;;;;;7.38;4.60;;;;;;;;;;5044528;28;20871;-52
2021/09/03 05:38:38;;;;;;;7.95;4.40;;;;;;;;;;5051090;28;20908;-55
2021/09/03 05:41:04;;;;;;;6.55;4.35;;;;;;;;;;5055551;28;20439;-58
2021/09/03 05:43:30;;;;;;;7.40;4.50;;;;;;;;;;5051788;28;20403;-56
2021/09/03 05:45:56;;;;;;;9.02;5.13;;;;;;;;;;5031947;28;20404;-57
2021/09/03 05:48:22;;;;;;;10.30;5.80;;;;;;;;;;5050364;28;20369;-55
2021/09/03 05:50:49;;;;;;;9.30;5.85;;;;;;;;;;5047054;28;20809;-55
2021/09/03 05:53:15;;;;;;;9.90;5.47;;;;;;;;;;5048461;28;20391;-56
2021/09/03 05:55:41;;;;;;;9.73;5.63;;;;;;;;;;5043308;28;20822;-56
2021/09/03 05:58:07;;;;;;;10.45;5.97;;;;;;;;;;5057191;28;20391;-55
2021/09/03 06:00:33;;;;;;;7.88;4.95;;;;;;;;;;5046281;28;20457;-56
2021/09/03 06:02:59;;;;;;;9.50;5.18;;;;;;;;;;5053899;28;20423;-56
2021/09/03 06:05:25;;;;;;;8.80;5.53;;;;;;;;;;5045771;28;20892;-54
2021/09/03 06:07:51;;;;;;;10.90;6.15;;;;;;;;;;5052226;28;20392;-54
2021/09/03 06:10:17;;;;;;;10.13;5.73;;;;;;;;;;5053957;28;20368;-56
2021/09/03 06:12:43;;;;;;;11.20;6.50;;;;;;;;;;5030799;28;20403;-55
2021/09/03 06:15:10;;;;;;;8.98;5.40;;;;;;;;;;5043252;28;20503;-55
2021/09/03 06:17:36;;;;;;;10.00;5.55;;;;;;;;;;5032070;28;20489;-56
2021/09/03 06:20:06;;;;;;;11.93;6.43;;;;;;;;;;5044774;28;20395;-56
2021/09/03 06:22:32;;;;;;;13.38;7.43;;;;;;;;;;5047400;28;20399;-54
2021/09/03 06:24:58;;;;;;;15.43;7.90;;;;;;;;;;5046310;28;20409;-57
2021/09/03 06:27:24;;;;;;;11.70;6.37;;;;;;;;;;5049670;28;20404;-57
2021/09/03 06:29:53;;;;;;;14.17;7.47;;;;;;;;;;5053993;28;20440;-55
2021/09/03 06:32:20;;;;;;;14.02;7.07;;;;;;;;;;5049410;28;20416;-58
2021/09/03 06:34:47;;;;;;;15.02;7.80;;;;;;;;;;5044381;28;20464;-56
2021/09/03 06:37:13;;;;;;;12.30;6.45;;;;;;;;;;5049031;28;20425;-58
2021/09/03 06:39:40;;;;;;;12.20;6.63;;;;;;;;;;5050028;28;20474;-58
2021/09/03 06:42:06;;;;;;;13.25;6.63;;;;;;;;;;5043932;28;20410;-57
2021/09/03 06:44:32;;;;;;;10.52;6.25;;;;;;;;;;5048155;28;20405;-56
2021/09/03 06:46:58;;;;;;;12.73;6.80;;;;;;;;;;5054260;28;20444;-56
2021/09/03 06:49:24;;;;;;;14.65;7.25;;;;;;;;;;5058132;28;20855;-53
2021/09/03 06:51:50;;;;;;;12.65;6.97;;;;;;;;;;5044372;28;21054;-57
2021/09/03 06:54:16;;;;;;;13.93;7.15;;;;;;;;;;5057877;28;20391;-57
2021/09/03 06:56:42;;;;;;;13.80;7.05;;;;;;;;;;5051319;28;20412;-55
2021/09/03 06:59:09;;;;;;;10.48;5.80;;;;;;;;;;5057713;28;20411;-57
2021/09/03 07:01:35;;;;;;;13.57;7.25;;;;;;;;;;5058828;28;20475;-57
2021/09/03 07:04:01;;;;;;;11.98;6.47;;;;;;;;;;5050726;28;20420;-55
2021/09/03 07:06:27;;;;;;;11.85;6.65;;;;;;;;;;5058471;28;20388;-57
2021/09/03 07:08:53;;;;;;;11.67;6.27;;;;;;;;;;5055135;28;20857;-56
2021/09/03 07:11:19;;;;;;;11.18;5.95;;;;;;;;;;5059921;28;20469;-57
2021/09/03 07:13:45;;;;;;;12.27;6.90;;;;;;;;;;5059946;28;20387;-56
2021/09/03 07:16:11;;;;;;;11.55;6.72;;;;;;;;;;5054334;28;20444;-58
2021/09/03 07:18:37;;;;;;;11.95;7.22;;;;;;;;;;5051549;28;20784;-58
2021/09/03 07:21:03;;;;;;;12.75;6.70;;;;;;;;;;5058323;28;20390;-58
2021/09/03 07:23:29;;;;;;;11.45;6.40;;;;;;;;;;5062411;28;20475;-58
2021/09/03 07:25:55;;;;;;;10.23;6.18;;;;;;;;;;5064646;28;20379;-58
2021/09/03 07:28:21;;;;;;;11.20;6.25;;;;;;;;;;5057377;28;20395;-56
2021/09/03 07:30:47;;;;;;;13.25;6.85;;;;;;;;;;5044377;28;20870;-57
2021/09/03 07:33:13;;;;;;;11.20;6.10;;;;;;;;;;5048446;28;20397;-58
2021/09/03 07:35:39;;;;;;;11.35;6.65;;;;;;;;;;5049317;28;20486;-54
2021/09/03 07:38:05;;;;;;;13.38;6.97;;;;;;;;;;5062111;28;21036;-57
2021/09/03 07:40:32;;;;;;;10.45;6.35;;;;;;;;;;5059314;28;20823;-58
2021/09/03 07:43:06;;;;;;;11.63;6.30;;;;;;;;;;5046463;28;20399;-57
2021/09/03 07:45:32;;;;;;;9.98;5.38;;;;;;;;;;5072100;28;20421;-58
2021/09/03 07:47:58;;;;;;;11.98;7.03;;;;;;;;;;5072075;28;20470;-57
2021/09/03 07:50:24;;;;;;;10.65;6.07;;;;;;;;;;5065095;28;20518;-57
2021/09/03 07:52:50;;;;;;;11.55;6.88;;;;;;;;;;5057799;28;20720;-56
2021/09/03 07:55:16;;;;;;;12.77;6.72;;;;;;;;;;5060396;28;20791;-55
2021/09/03 07:57:42;;;;;;;11.32;6.63;;;;;;;;;;5051894;28;20419;-53
2021/09/03 08:00:08;;;;;;;12.53;7.23;;;;;;;;;;5060062;28;20381;-54
2021/09/03 08:02:35;;;;;;;12.93;7.35;;;;;;;;;;5042792;28;20397;-56
2021/09/03 08:05:01;;;;;;;16.70;8.18;;;;;;;;;;5056925;28;20919;-56
2021/09/03 08:07:28;;;;;;;11.93;6.95;;;;;;;;;;5052143;28;20393;-58
2021/09/03 08:09:55;;;;;;;14.27;7.90;;;;;;;;;;5042705;28;20404;-58
2021/09/03 08:12:21;;;;;;;14.90;8.00;;;;;;;;;;5053519;28;20581;-58
2021/09/03 08:14:48;;;;;;;14.85;7.47;;;;;;;;;;5057203;28;20401;-55
2021/09/03 08:17:14;;;;;;;12.45;6.78;;;;;;;;;;5047972;28;20513;-57
2021/09/03 08:19:40;;;;;;;13.07;6.30;;;;;;;;;;5051463;28;20390;-57
2021/09/03 08:22:06;;;;;;;13.38;6.85;;;;;;;;;;5058690;28;20394;-54
2021/09/03 08:24:32;;;;;;;12.20;5.88;;;;;;;;;;5041994;28;20451;-57
2021/09/03 08:26:58;;;;;;;13.63;7.22;;;;;;;;;;5048600;28;20389;-57
2021/09/03 08:29:24;;;;;;;12.35;6.15;;;;;;;;;;5048490;28;20477;-55
2021/09/03 08:31:50;;;;;;;11.70;6.57;;;;;;;;;;5049232;28;20815;-56
2021/09/03 08:34:17;;;;;;;11.70;5.95;;;;;;;;;;5048023;28;20553;-57
2021/09/03 08:36:43;;;;;;;10.32;6.10;;;;;;;;;;5044536;28;20745;-58
2021/09/03 08:39:09;;;;;;;11.68;6.28;;;;;;;;;;5045138;28;20724;-57
2021/09/03 08:41:35;;;;;;;11.20;5.97;;;;;;;;;;5049251;28;20934;-56
2021/09/03 08:44:01;;;;;;;12.35;6.07;;;;;;;;;;5051201;28;20454;-55
2021/09/03 08:46:27;;;;;;;11.23;5.70;;;;;;;;;;5050801;28;20401;-55
2021/09/03 08:48:53;;;;;;;11.80;5.70;;;;;;;;;;5050731;28;20721;-53
2021/09/03 08:51:19;;;;;;;11.35;5.95;;;;;;;;;;5047499;28;20484;-55
2021/09/03 08:53:46;;;;;;;12.18;6.30;;;;;;;;;;5057481;28;20380;-56
2021/09/03 08:56:12;;;;;;;10.45;5.68;;;;;;;;;;5061318;28;20420;-54
2021/09/03 08:58:38;;;;;;;10.80;6.37;;;;;;;;;;5056228;28;20500;-52
2021/09/03 09:01:11;;;;;;;8.37;4.57;;;;;;;;;;5051964;28;20469;-56
2021/09/03 09:03:41;;;;;;;9.60;5.15;;;;;;;;;;5048821;28;20452;-56
2021/09/03 09:06:08;;;;;;;9.55;4.45;;;;;;;;;;5049535;28;20417;-58
2021/09/03 09:08:34;;;;;;;9.65;5.30;;;;;;;;;;5050644;28;20919;-57
2021/09/03 09:11:02;;;;;;;10.63;5.68;;;;;;;;;;5052775;28;20423;-56
2021/09/03 09:13:29;;;;;;;8.55;4.75;;;;;;;;;;5056721;28;20393;-57
2021/09/03 09:16:00;;;;;;;9.85;5.25;;;;;;;;;;5047986;28;20879;-57
2021/09/03 09:18:36;;;;;;;11.35;5.38;;;;;;;;;;5048327;28;20512;-57
2021/09/03 09:21:16;;;;;;;13.67;5.63;;;;;;;;;;5055661;28;20393;-57
2021/09/03 09:23:49;;;;;;;10.15;4.68;;;;;;;;;;5054917;28;20394;-53
2021/09/03 09:26:16;;;;;;;7.38;4.32;;;;;;;;;;5041369;28;20382;-56
2021/09/03 09:28:42;;;;;;;7.88;3.78;;;;;;;;;;5058222;28;20520;-57
2021/09/03 09:31:08;;;;;;;8.20;3.83;;;;;;;;;;5055086;28;20384;-52
2021/09/03 09:33:34;;;;;;;7.20;3.75;;;;;;;;;;5049253;28;20390;-57
2021/09/03 09:36:01;;;;;;;6.72;3.88;;;;;;;;;;5050111;28;20511;-56
2021/09/03 09:38:29;;;;;;;6.90;3.63;;;;;;;;;;5060929;28;20765;-54
2021/09/03 09:40:56;;;;;;;6.70;3.70;;;;;;;;;;5046192;28;20968;-55
2021/09/03 09:43:26;;;;;;;8.60;4.17;;;;;;;;;;5050042;28;20439;-54
2021/09/03 09:46:22;;;;;;;8.13;4.95;;;;;;;;;;5059628;28;20433;-54
2021/09/03 09:48:51;;;;;;;7.57;3.70;;;;;;;;;;5029047;28;20431;-52
2021/09/03 09:51:38;;;;;;;7.00;4.20;;;;;;;;;;5044123;28;21320;-50
2021/09/03 09:54:18;;;;;;;9.82;4.47;;;;;;;;;;5051739;28;20448;-52
2021/09/03 09:56:46;;;;;;;7.53;4.25;;;;;;;;;;5057646;28;20907;-54
2021/09/03 09:59:13;;;;;;;8.10;3.88;;;;;;;;;;5053222;28;20429;-50
2021/09/03 10:01:40;;;;;;;7.57;3.92;;;;;;;;;;5041574;28;20958;-52
2021/09/03 10:04:10;;;;;;;8.25;4.68;;;;;;;;;;5053150;28;20392;-52
2021/09/03 10:06:36;;;;;;;8.57;4.15;;;;;;;;;;5052782;28;20385;-52
2021/09/03 10:09:04;;;;;;;9.00;4.07;;;;;;;;;;5047508;28;20383;-54
2021/09/03 10:11:30;;;;;;;10.40;4.50;;;;;;;;;;5051504;28;20390;-53
2021/09/03 10:13:56;;;;;;;8.43;3.88;;;;;;;;;;5053013;28;20414;-53
2021/09/03 10:16:23;;;;;;;7.72;3.95;;;;;;;;;;5050319;28;20401;-51
2021/09/03 10:18:50;;;;;;;9.13;4.60;;;;;;;;;;5050577;28;20733;-53
2021/09/03 10:21:16;;;;;;;7.82;4.28;;;;;;;;;;5049963;28;20717;-55
2021/09/03 10:23:56;;;;;;;8.02;4.22;;;;;;;;;;5051261;28;21836;-54
2021/09/03 10:26:30;;;;;;;9.45;4.55;;;;;;;;;;5058661;28;20411;-55
2021/09/03 10:29:14;;;;;;;8.77;4.25;;;;;;;;;;5058571;28;20835;-56
2021/09/03 10:31:59;;;;;;;6.72;3.70;;;;;;;;;;5065941;28;20462;-56
2021/09/03 10:37:14;;;;;;;6.97;3.90;;;;;;;;;;5067419;28;20453;-52
2021/09/03 10:39:45;;;;;;;7.00;3.50;;;;;;;;;;5049695;28;20379;-54
2021/09/03 10:42:11;;;;;;;5.85;3.58;;;;;;;;;;5053287;28;20443;-52
2021/09/03 10:44:56;;;;;;;6.10;3.13;;;;;;;;;;5053499;28;20473;-55
2021/09/03 10:47:32;;;;;;;5.90;3.63;;;;;;;;;;5045074;28;20472;-55
2021/09/03 10:49:58;;;;;;;6.23;3.23;;;;;;;;;;5062040;28;20404;-54
2021/09/03 10:52:24;;;;;;;6.87;3.43;;;;;;;;;;5043514;28;20486;-53
2021/09/03 10:54:51;;;;;;;6.43;3.72;;;;;;;;;;5063065;28;20520;-55
2021/09/03 10:57:17;;;;;;;6.60;3.73;;;;;;;;;;5053954;28;20370;-51
2021/09/03 11:00:01;;;;;;;5.45;3.53;;;;;;;;;;5045274;28;20439;-50
2021/09/03 11:02:28;;;;;;;5.50;3.30;;;;;;;;;;5045823;28;20472;-53
2021/09/03 11:05:09;;;;;;;5.22;3.13;;;;;;;;;;5053499;28;20382;-50
2021/09/03 11:07:45;;;;;;;7.32;3.65;;;;;;;;;;5052739;28;20374;-54
2021/09/03 11:10:19;;;;;;;5.30;3.10;;;;;;;;;;5048689;28;20377;-53
2021/09/03 11:12:51;;;;;;;6.50;3.22;;;;;;;;;;5050607;28;20482;-52
2021/09/03 11:15:17;;;;;;;5.90;3.30;;;;;;;;;;5049869;28;20500;-52
2021/09/03 11:17:44;;;;;;;6.22;3.17;;;;;;;;;;5045280;28;20497;-52
2021/09/03 11:20:10;;;;;;;5.37;2.97;;;;;;;;;;5050838;28;20950;-50
2021/09/03 11:22:37;;;;;;;5.53;3.10;;;;;;;;;;5052810;28;20379;-52
2021/09/03 11:25:04;;;;;;;5.65;3.10;;;;;;;;;;5046175;28;20400;-51
2021/09/03 11:27:31;;;;;;;4.32;2.63;;;;;;;;;;5060838;28;20412;-53
2021/09/03 11:29:58;;;;;;;7.20;2.92;;;;;;;;;;5053001;28;20392;-51
2021/09/03 11:32:28;;;;;;;5.47;3.00;;;;;;;;;;5055361;28;20381;-57
2021/09/03 11:34:58;;;;;;;5.15;2.70;;;;;;;;;;5059257;28;20404;-57
2021/09/03 11:37:27;;;;;;;5.10;2.30;;;;;;;;;;5052430;28;20378;-56
2021/09/03 11:39:55;;;;;;;6.23;2.57;;;;;;;;;;5055828;28;20920;-53
2021/09/03 11:42:26;;;;;;;6.18;2.97;;;;;;;;;;5053566;28;20393;-54
2021/09/03 11:45:01;;;;;;;5.80;2.95;;;;;;;;;;5052695;28;20374;-55
2021/09/03 11:47:32;;;;;;;3.75;2.45;;;;;;;;;;5048844;28;20921;-56
2021/09/03 11:49:59;;;;;;;4.45;2.50;;;;;;;;;;5060663;28;20882;-54
2021/09/03 11:52:26;;;;;;;6.00;2.60;;;;;;;;;;5050757;28;20389;-56
2021/09/03 11:54:52;;;;;;;4.68;2.55;;;;;;;;;;5057776;28;20456;-55
2021/09/03 11:57:18;;;;;;;5.87;2.40;;;;;;;;;;5052249;28;20389;-56
2021/09/03 11:59:53;;;;;;;5.03;2.50;;;;;;;;;;5052926;28;20377;-52
2021/09/03 12:02:20;;;;;;;4.47;2.40;;;;;;;;;;5053115;28;20383;-54
2021/09/03 12:04:46;;;;;;;4.93;2.10;;;;;;;;;;5052086;28;20383;-53
2021/09/03 12:07:16;;;;;;;3.90;2.00;;;;;;;;;;5051811;28;20847;-52
2021/09/03 12:09:43;;;;;;;3.80;2.03;;;;;;;;;;5060180;28;20454;-54
2021/09/03 12:12:09;;;;;;;4.07;2.20;;;;;;;;;;5045121;28;20466;-52
2021/09/03 12:14:36;;;;;;;4.45;2.13;;;;;;;;;;5053886;28;20470;-52
2021/09/03 12:17:02;;;;;;;3.63;1.88;;;;;;;;;;5046185;28;20544;-51
2021/09/03 12:19:28;;;;;;;4.30;2.53;;;;;;;;;;5048920;28;20369;-51
2021/09/03 12:21:53;;;;;;;5.00;2.25;;;;;;;;;;5048857;28;20406;-52
2021/09/03 12:24:21;;;;;;;3.37;1.93;;;;;;;;;;5047401;28;20876;-53
2021/09/03 12:26:51;;;;;;;4.05;2.30;;;;;;;;;;5040145;28;20488;-56
2021/09/03 12:29:19;;;;;;;3.50;2.10;;;;;;;;;;5043845;28;20405;-53
2021/09/03 12:31:52;;;;;;;3.63;1.90;;;;;;;;;;5051468;28;20444;-52
2021/09/03 12:34:18;;;;;;;3.70;2.10;;;;;;;;;;5028976;28;20391;-52
2021/09/03 12:36:45;;;;;;;3.80;1.92;;;;;;;;;;5058840;28;20409;-52
2021/09/03 12:39:23;;;;;;;4.95;1.98;;;;;;;;;;5050364;28;20490;-58
2021/09/03 12:41:49;;;;;;;4.57;2.03;;;;;;;;;;5052707;28;20392;-57
2021/09/03 12:44:26;;;;;;;3.42;1.80;;;;;;;;;;5023190;28;20768;-58
2021/09/03 12:46:53;;;;;;;3.17;1.52;;;;;;;;;;5047891;28;20393;-57
2021/09/03 12:49:21;;;;;;;3.70;1.80;;;;;;;;;;5052034;28;20386;-58
2021/09/03 12:51:48;;;;;;;3.38;1.65;;;;;;;;;;5048678;28;20400;-58
2021/09/03 12:54:14;;;;;;;2.97;1.77;;;;;;;;;;5056265;28;20736;-58
2021/09/03 12:56:41;;;;;;;2.38;1.27;;;;;;;;;;5046628;28;20753;-57
2021/09/03 12:59:08;;;;;;;3.33;1.60;;;;;;;;;;5054549;28;20490;-58
2021/09/03 13:01:37;;;;;;;2.20;1.20;;;;;;;;;;5051241;28;20380;-58
2021/09/03 13:04:03;;;;;;;4.10;1.40;;;;;;;;;;5051350;28;20487;-58
2021/09/03 13:06:29;;;;;;;2.47;1.47;;;;;;;;;;5053482;28;20472;-55
2021/09/03 13:08:56;;;;;;;2.70;1.40;;;;;;;;;;5047223;28;20392;-54
2021/09/03 13:11:22;;;;;;;3.17;1.50;;;;;;;;;;5046185;28;20389;-55
2021/09/03 13:13:49;;;;;;;3.28;1.20;;;;;;;;;;5047320;28;20887;-55
2021/09/03 13:16:15;;;;;;;3.15;1.70;;;;;;;;;;5042382;28;20464;-55
2021/09/03 13:18:41;;;;;;;3.25;1.23;;;;;;;;;;5047047;28;20479;-54
2021/09/03 13:21:07;;;;;;;2.40;1.40;;;;;;;;;;5044113;28;20399;-55
2021/09/03 13:23:34;;;;;;;4.18;1.52;;;;;;;;;;5042476;28;20486;-51
2021/09/03 13:26:00;;;;;;;2.80;1.38;;;;;;;;;;5047199;28;20734;-56
2021/09/03 13:28:26;;;;;;;2.50;1.42;;;;;;;;;;5064785;28;20411;-54
2021/09/03 13:30:52;;;;;;;1.95;1.20;;;;;;;;;;5045339;28;20484;-56
2021/09/03 13:33:18;;;;;;;2.92;1.38;;;;;;;;;;5050620;28;20460;-54
2021/09/03 13:35:44;;;;;;;2.22;1.30;;;;;;;;;;5048065;28;20443;-56
2021/09/03 13:38:10;;;;;;;2.55;1.35;;;;;;;;;;5043365;28;20420;-58
2021/09/03 13:40:36;;;;;;;2.55;1.70;;;;;;;;;;5057559;28;20471;-58
2021/09/03 13:43:02;;;;;;;2.97;1.43;;;;;;;;;;5057592;28;20397;-58
2021/09/03 13:45:36;;;;;;;3.42;1.85;;;;;;;;;;5036540;28;20399;-57
2021/09/03 13:48:02;;;;;;;3.25;1.95;;;;;;;;;;5048908;28;20404;-58
2021/09/03 13:50:28;;;;;;;2.88;1.55;;;;;;;;;;5043596;28;20799;-58
2021/09/03 13:52:54;;;;;;;2.58;1.58;;;;;;;;;;5052157;28;21013;-58
2021/09/03 13:55:20;;;;;;;2.88;1.40;;;;;;;;;;5055031;28;20407;-57
2021/09/03 13:57:46;;;;;;;3.45;1.70;;;;;;;;;;5048787;28;20399;-57
2021/09/03 14:00:14;;;;;;;2.55;1.63;;;;;;;;;;5033591;28;20391;-57
2021/09/03 14:02:40;;;;;;;3.05;1.50;;;;;;;;;;5047429;28;20950;-58
2021/09/03 14:05:06;;;;;;;2.92;1.70;;;;;;;;;;5046553;28;20395;-58
2021/09/03 14:07:32;;;;;;;2.40;1.30;;;;;;;;;;5052221;28;20487;-56
2021/09/03 14:09:58;;;;;;;2.20;1.50;;;;;;;;;;5048285;28;20399;-58
2021/09/03 14:12:25;;;;;;;2.38;1.40;;;;;;;;;;5053324;28;20440;-55
2021/09/03 14:14:51;;;;;;;3.10;1.50;;;;;;;;;;5044473;28;20393;-54
2021/09/03 14:17:17;;;;;;;2.30;1.20;;;;;;;;;;5037201;28;20426;-54
2021/09/03 14:19:43;;;;;;;2.72;1.65;;;;;;;;;;5043726;28;20464;-57
2021/09/03 14:22:09;;;;;;;3.03;1.58;;;;;;;;;;5045299;28;20448;-55
2021/09/03 14:24:35;;;;;;;2.20;1.33;;;;;;;;;;5058668;28;20405;-57
2021/09/03 14:27:01;;;;;;;3.42;1.50;;;;;;;;;;5056867;28;20422;-56
2021/09/03 14:29:27;;;;;;;2.67;1.67;;;;;;;;;;5052692;28;20483;-58
2021/09/03 14:31:53;;;;;;;2.33;1.40;;;;;;;;;;5037399;28;20969;-59
2021/09/03 14:34:19;;;;;;;4.18;1.60;;;;;;;;;;5057040;28;20425;-58
2021/09/03 14:36:45;;;;;;;2.45;1.60;;;;;;;;;;5042368;28;20402;-58
2021/09/03 14:39:11;;;;;;;3.22;1.73;;;;;;;;;;5037317;28;20402;-57
2021/09/03 14:41:37;;;;;;;2.20;1.40;;;;;;;;;;5048674;28;20963;-58